createdAt,value
2023-03-15T00:05:02.178Z,97710.45
2023-03-15T00:11:12.092Z,97725.85
2023-03-15T00:17:14.005Z,97761.77
2023-03-15T00:23:16.032Z,97806.65
2023-03-15T00:29:17.973Z,97841.70
2023-03-15T00:35:20.687Z,97859.46
2023-03-15T00:41:23.243Z,97895.46
2023-03-15T00:47:25.307Z,97924.34
2023-03-15T00:53:28.249Z,97930.83
2023-03-15T00:59:34.678Z,97958.12
2023-03-15T01:05:36.591Z,97969.52
2023-03-15T01:11:38.306Z,97984.54
2023-03-15T01:17:42.158Z,98013.91
2023-03-15T01:23:44.276Z,98027.89
2023-03-15T01:29:45.843Z,98040.69
2023-03-15T01:35:48.740Z,98049.59
2023-03-15T01:41:50.575Z,98080.66
2023-03-15T01:47:52.783Z,98105.44
2023-03-15T01:54:05.196Z,98126.30
2023-03-15T02:00:19.238Z,98138.76
2023-03-15T02:06:34.375Z,98146.73
2023-03-15T02:12:41.511Z,98160.23
2023-03-15T02:18:44.026Z,98181.20
2023-03-15T02:25:21.304Z,98188.67
2023-03-15T02:31:23.423Z,98188.73
2023-03-15T02:37:25.511Z,98211.21
2023-03-15T02:43:31.850Z,98215.66
2023-03-15T02:49:39.962Z,98211.55
2023-03-15T02:55:42.525Z,98217.07
2023-03-15T03:01:45.207Z,98235.80
2023-03-15T03:07:49.492Z,98253.66
2023-03-15T03:13:51.109Z,98258.53
2023-03-15T03:19:53.970Z,98270.98
2023-03-15T03:26:01.582Z,98284.83
2023-03-15T03:32:03.983Z,98282.16
2023-03-15T03:38:07.932Z,98277.02
2023-03-15T03:44:13.272Z,98283.50
2023-03-15T03:50:15.851Z,98308.20
2023-03-15T03:56:17.508Z,98317.15
2023-03-15T04:02:19.577Z,98301.48
2023-03-15T04:08:31.288Z,98312.89
2023-03-15T04:14:33.444Z,98328.11
2023-03-15T04:20:35.323Z,98331.73
2023-03-15T04:26:37.486Z,98333.55
2023-03-15T04:33:02.736Z,98334.27
2023-03-15T04:39:23.033Z,98339.14
2023-03-15T04:45:42.306Z,98347.25
2023-03-15T04:52:07.399Z,98357.98
2023-03-15T04:58:27.420Z,98368.21
2023-03-15T05:04:55.196Z,98376.27
2023-03-15T05:11:08.579Z,98377.12
2023-03-15T05:17:27.297Z,98385.46
2023-03-15T05:23:38.229Z,98401.81
2023-03-15T05:29:50.739Z,98410.13
2023-03-15T05:36:13.881Z,98423.75
2023-03-15T05:42:35.380Z,98433.95
2023-03-15T05:48:55.609Z,98441.52
2023-03-15T05:55:20.760Z,98456.58
2023-03-15T06:02:09.289Z,98466.79
2023-03-15T06:08:19.416Z,98480.06
2023-03-15T06:14:22.569Z,98491.70
2023-03-15T06:20:29.042Z,98497.64
2023-03-15T06:26:32.015Z,98509.93
2023-03-15T06:32:36.959Z,98524.27
2023-03-15T06:38:39.463Z,98533.52
2023-03-15T06:44:43.871Z,98541.11
2023-03-15T06:50:56.660Z,98543.48
2023-03-15T06:57:00.724Z,98547.70
2023-03-15T07:03:08.154Z,98559.76
2023-03-15T07:09:16.951Z,98571.42
2023-03-15T07:15:18.826Z,98569.09
2023-03-15T07:21:25.157Z,98574.95
2023-03-15T07:27:29.439Z,98578.30
2023-03-15T07:33:35.150Z,98585.69
2023-03-15T07:39:36.680Z,98593.45
2023-03-15T07:45:38.287Z,98594.51
2023-03-15T07:51:39.803Z,98596.67
2023-03-15T07:57:41.358Z,98606.69
2023-03-15T08:03:43.140Z,98616.00
2023-03-15T08:09:45.643Z,98630.68
2023-03-15T08:15:49.688Z,98636.55
2023-03-15T08:21:53.228Z,98642.80
2023-03-15T08:27:54.935Z,98645.58
2023-03-15T08:33:56.713Z,98644.12
2023-03-15T08:40:04.169Z,98647.75
2023-03-15T08:46:05.817Z,98659.41
2023-03-15T08:52:07.879Z,98656.62
2023-03-15T08:58:09.434Z,98654.69
2023-03-15T09:04:11.212Z,98657.94
2023-03-15T09:10:32.466Z,98668.21
2023-03-15T09:16:43.545Z,98686.63
2023-03-15T09:22:54.538Z,98694.55
2023-03-15T09:28:58.710Z,98699.32
2023-03-15T09:35:00.266Z,98706.52
2023-03-15T09:41:03.158Z,98703.52
2023-03-15T09:47:23.410Z,98701.67
2023-03-15T09:53:31.464Z,98712.64
2023-03-15T09:59:35.807Z,98707.41
2023-03-15T10:05:43.065Z,98715.76
2023-03-15T10:11:50.007Z,98720.45
2023-03-15T10:17:57.744Z,98727.58
2023-03-15T10:24:00.691Z,98724.73
2023-03-15T10:30:14.965Z,98741.84
2023-03-15T10:36:19.492Z,98748.02
2023-03-15T10:42:30.486Z,98755.52
2023-03-15T10:48:34.364Z,98752.01
2023-03-15T10:54:36.013Z,98758.55
2023-03-15T11:00:37.640Z,98761.17
2023-03-15T11:06:46.363Z,98757.36
2023-03-15T11:12:48.052Z,98762.75
2023-03-15T11:19:03.261Z,98763.25
2023-03-15T11:25:11.437Z,98760.86
2023-03-15T11:31:13.527Z,98750.55
2023-03-15T11:37:39.364Z,98756.21
2023-03-15T11:43:49.062Z,98761.60
2023-03-15T11:49:55.613Z,98762.91
2023-03-15T11:56:18.920Z,98763.45
2023-03-15T12:02:20.672Z,98759.35
2023-03-15T12:08:41.044Z,98761.81
2023-03-15T12:14:44.287Z,98766.06
2023-03-15T12:21:05.908Z,98760.45
2023-03-15T12:27:18.684Z,98764.34
2023-03-15T12:33:21.788Z,98758.20
2023-03-15T12:39:45.767Z,98770.09
2023-03-15T12:45:47.682Z,98768.86
2023-03-15T12:52:00.722Z,98766.38
2023-03-15T12:58:02.568Z,98766.10
2023-03-15T13:04:04.284Z,98770.09
2023-03-15T13:10:19.044Z,98769.69
2023-03-15T13:16:35.381Z,98774.44
2023-03-15T13:23:05.657Z,98767.88
2023-03-15T13:29:14.464Z,98774.16
2023-03-15T13:35:23.378Z,98778.65
2023-03-15T13:41:27.776Z,98791.85
2023-03-15T13:47:30.598Z,98801.55
2023-03-15T13:53:48.634Z,98804.86
2023-03-15T14:00:10.406Z,98815.56
2023-03-15T14:06:21.146Z,98823.34
2023-03-15T14:12:22.644Z,98829.38
2023-03-15T14:18:38.806Z,98833.89
2023-03-15T14:24:42.295Z,98839.78
2023-03-15T14:30:51.488Z,98843.36
2023-03-15T14:36:59.140Z,98844.92
2023-03-15T14:43:02.146Z,98843.69
2023-03-15T14:49:04.516Z,98861.11
2023-03-15T14:55:08.557Z,98856.58
2023-03-15T15:01:15.657Z,98869.79
2023-03-15T15:07:19.662Z,98870.80
2023-03-15T15:13:27.112Z,98882.52
2023-03-15T15:19:28.600Z,98887.09
2023-03-15T15:25:33.110Z,98891.94
2023-03-15T15:31:34.680Z,98893.04
2023-03-15T15:37:36.335Z,98898.03
2023-03-15T15:43:37.943Z,98896.36
2023-03-15T15:49:41.433Z,98902.56
2023-03-15T15:55:43.639Z,98911.22
2023-03-15T16:01:59.441Z,98921.63
2023-03-15T16:08:03.586Z,98916.27
2023-03-15T16:14:06.716Z,98919.48
2023-03-15T16:20:10.952Z,98932.65
2023-03-15T16:26:14.793Z,98936.44
2023-03-15T16:32:32.960Z,98942.77
2023-03-15T16:38:41.837Z,98951.16
2023-03-15T16:44:43.892Z,98952.63
2023-03-15T16:50:45.924Z,98957.46
2023-03-15T16:56:48.171Z,98968.62
2023-03-15T17:02:53.652Z,98980.61
2023-03-15T17:09:01.112Z,98991.90
2023-03-15T17:15:04.339Z,99002.64
2023-03-15T17:21:07.648Z,99003.39
2023-03-15T17:27:21.576Z,99001.66
2023-03-15T17:33:25.478Z,99013.09
2023-03-15T17:39:27.234Z,99020.40
2023-03-15T17:45:31.363Z,99027.36
2023-03-15T17:51:35.900Z,99034.12
2023-03-15T17:57:40.455Z,99041.14
2023-03-15T18:03:52.896Z,99041.53
2023-03-15T18:09:56.259Z,99043.17
2023-03-15T18:16:06.251Z,99041.88
2023-03-15T18:22:14.712Z,99041.39
2023-03-15T18:28:18.340Z,99040.65
2023-03-15T18:34:23.605Z,99036.83
2023-03-15T18:40:32.650Z,99033.69
2023-03-15T18:46:36.260Z,99036.88
2023-03-15T18:52:38.457Z,99039.52
2023-03-15T18:58:40.267Z,99043.05
2023-03-15T19:04:44.340Z,99051.52
2023-03-15T19:10:46.771Z,99053.83
2023-03-15T19:16:50.676Z,99060.98
2023-03-15T19:22:52.664Z,99062.17
2023-03-15T19:28:57.006Z,99063.89
2023-03-15T19:34:58.687Z,99063.89
2023-03-15T19:41:04.820Z,99066.88
2023-03-15T19:47:14.366Z,99078.08
2023-03-15T19:53:16.074Z,99085.02
2023-03-15T19:59:18.925Z,99091.36
2023-03-15T20:05:21.390Z,99093.34
2023-03-15T20:11:28.579Z,99097.02
2023-03-15T20:17:31.444Z,99093.92
2023-03-15T20:23:34.384Z,99105.13
2023-03-15T20:29:37.343Z,99112.36
2023-03-15T20:35:42.781Z,99117.47
2023-03-15T20:41:45.815Z,99121.46
2023-03-15T20:47:47.851Z,99125.02
2023-03-15T20:53:50.633Z,99122.38
2023-03-15T20:59:53.004Z,99125.37
2023-03-15T21:05:54.540Z,99131.30
2023-03-15T21:11:57.788Z,99139.74
2023-03-15T21:17:59.343Z,99141.14
2023-03-15T21:24:01.663Z,99150.71
2023-03-15T21:30:03.683Z,99157.56
2023-03-15T21:36:06.675Z,99161.38
2023-03-15T21:42:11.421Z,99161.14
2023-03-15T21:48:13.467Z,99164.63
2023-03-15T21:54:17.655Z,99165.70
2023-03-15T22:00:20.278Z,99171.10
2023-03-15T22:06:22.266Z,99175.13
2023-03-15T22:12:25.068Z,99186.74
2023-03-15T22:18:27.994Z,99196.15
2023-03-15T22:24:35.505Z,99204.45
2023-03-15T22:30:37.283Z,99205.92
2023-03-15T22:36:39.002Z,99207.99
2023-03-15T22:42:41.911Z,99213.73
2023-03-15T22:48:43.590Z,99220.84
2023-03-15T22:54:45.336Z,99223.77
2023-03-15T23:00:49.833Z,99231.41
2023-03-15T23:06:51.435Z,99234.17
2023-03-15T23:12:52.875Z,99243.36
2023-03-15T23:18:54.791Z,99248.95
2023-03-15T23:24:57.321Z,99256.87
2023-03-15T23:31:01.062Z,99263.84
2023-03-15T23:37:05.800Z,99270.65
2023-03-15T23:43:08.768Z,99274.41
2023-03-15T23:49:18.016Z,99275.15
2023-03-15T23:55:22.952Z,99278.84
